sensor_id;sensor_type;location;lat;lon;timestamp;P1;durP1;ratioP1;P2;durP2;ratioP2
60292;SDS011;52402;52.670;6.750;2023-11-22T00:01:10;83.40;;;78.13;;
60292;SDS011;52402;52.670;6.750;2023-11-22T00:03:36;82.57;;;77.50;;
60292;SDS011;52402;52.670;6.750;2023-11-22T00:06:02;76.60;;;71.70;;
60292;SDS011;52402;52.670;6.750;2023-11-22T00:08:28;90.40;;;84.72;;
60292;SDS011;52402;52.670;6.750;2023-11-22T00:10:54;90.90;;;85.38;;
60292;SDS011;52402;52.670;6.750;2023-11-22T00:13:20;89.32;;;83.82;;
60292;SDS011;52402;52.670;6.750;2023-11-22T00:15:45;89.13;;;83.72;;
60292;SDS011;52402;52.670;6.750;2023-11-22T00:18:11;88.10;;;82.72;;
60292;SDS011;52402;52.670;6.750;2023-11-22T00:20:39;83.30;;;78.20;;
60292;SDS011;52402;52.670;6.750;2023-11-22T00:23:05;83.75;;;78.55;;
60292;SDS011;52402;52.670;6.750;2023-11-22T00:25:33;77.68;;;72.85;;
60292;SDS011;52402;52.670;6.750;2023-11-22T00:28:01;74.30;;;69.60;;
60292;SDS011;52402;52.670;6.750;2023-11-22T00:30:27;83.93;;;78.82;;
60292;SDS011;52402;52.670;6.750;2023-11-22T00:32:55;82.25;;;77.15;;
60292;SDS011;52402;52.670;6.750;2023-11-22T00:35:23;86.35;;;81.15;;
60292;SDS011;52402;52.670;6.750;2023-11-22T00:37:49;77.20;;;72.40;;
60292;SDS011;52402;52.670;6.750;2023-11-22T00:40:17;75.20;;;70.40;;
60292;SDS011;52402;52.670;6.750;2023-11-22T00:42:48;81.35;;;76.25;;
60292;SDS011;52402;52.670;6.750;2023-11-22T00:45:14;84.35;;;79.15;;
60292;SDS011;52402;52.670;6.750;2023-11-22T00:47:43;83.32;;;78.20;;
60292;SDS011;52402;52.670;6.750;2023-11-22T00:50:09;80.95;;;75.78;;
60292;SDS011;52402;52.670;6.750;2023-11-22T00:52:34;79.82;;;74.93;;
60292;SDS011;52402;52.670;6.750;2023-11-22T00:55:02;84.97;;;79.88;;
60292;SDS011;52402;52.670;6.750;2023-11-22T00:57:28;90.68;;;85.15;;
60292;SDS011;52402;52.670;6.750;2023-11-22T00:59:59;83.78;;;78.45;;
60292;SDS011;52402;52.670;6.750;2023-11-22T01:02:24;83.00;;;77.70;;
60292;SDS011;52402;52.670;6.750;2023-11-22T01:04:55;88.85;;;83.35;;
60292;SDS011;52402;52.670;6.750;2023-11-22T01:07:28;89.18;;;83.68;;
60292;SDS011;52402;52.670;6.750;2023-11-22T01:09:56;78.35;;;73.38;;
60292;SDS011;52402;52.670;6.750;2023-11-22T01:12:29;86.32;;;81.03;;
60292;SDS011;52402;52.670;6.750;2023-11-22T01:14:57;78.18;;;73.22;;
60292;SDS011;52402;52.670;6.750;2023-11-22T01:17:31;90.97;;;85.32;;
60292;SDS011;52402;52.670;6.750;2023-11-22T01:19:59;93.97;;;88.07;;
60292;SDS011;52402;52.670;6.750;2023-11-22T01:22:28;91.60;;;85.90;;
60292;SDS011;52402;52.670;6.750;2023-11-22T01:24:54;87.72;;;82.32;;
60292;SDS011;52402;52.670;6.750;2023-11-22T01:27:19;85.70;;;80.40;;
60292;SDS011;52402;52.670;6.750;2023-11-22T01:29:47;85.68;;;80.38;;
60292;SDS011;52402;52.670;6.750;2023-11-22T01:32:13;84.38;;;79.18;;
60292;SDS011;52402;52.670;6.750;2023-11-22T01:34:46;80.90;;;75.90;;
60292;SDS011;52402;52.670;6.750;2023-11-22T01:37:12;79.93;;;75.03;;
60292;SDS011;52402;52.670;6.750;2023-11-22T01:39:39;76.85;;;72.05;;
60292;SDS011;52402;52.670;6.750;2023-11-22T01:42:08;78.70;;;73.88;;
60292;SDS011;52402;52.670;6.750;2023-11-22T01:44:34;83.95;;;78.85;;
60292;SDS011;52402;52.670;6.750;2023-11-22T01:47:06;85.47;;;80.28;;
60292;SDS011;52402;52.670;6.750;2023-11-22T01:49:31;88.22;;;82.82;;
60292;SDS011;52402;52.670;6.750;2023-11-22T01:51:57;78.75;;;73.85;;
60292;SDS011;52402;52.670;6.750;2023-11-22T01:54:23;77.75;;;72.85;;
60292;SDS011;52402;52.670;6.750;2023-11-22T01:56:50;85.40;;;80.13;;
60292;SDS011;52402;52.670;6.750;2023-11-22T01:59:16;82.07;;;76.95;;
60292;SDS011;52402;52.670;6.750;2023-11-22T02:01:42;78.35;;;73.45;;
60292;SDS011;52402;52.670;6.750;2023-11-22T02:04:11;78.47;;;73.57;;
60292;SDS011;52402;52.670;6.750;2023-11-22T02:06:38;80.53;;;75.53;;
60292;SDS011;52402;52.670;6.750;2023-11-22T02:09:04;79.90;;;75.00;;
60292;SDS011;52402;52.670;6.750;2023-11-22T02:11:30;77.35;;;72.55;;
60292;SDS011;52402;52.670;6.750;2023-11-22T02:13:55;82.57;;;77.47;;
60292;SDS011;52402;52.670;6.750;2023-11-22T02:16:21;76.15;;;71.35;;
60292;SDS011;52402;52.670;6.750;2023-11-22T02:18:47;77.28;;;72.53;;
60292;SDS011;52402;52.670;6.750;2023-11-22T02:21:13;93.32;;;87.63;;
60292;SDS011;52402;52.670;6.750;2023-11-22T02:23:41;93.75;;;87.95;;
60292;SDS011;52402;52.670;6.750;2023-11-22T02:26:07;91.88;;;86.18;;
60292;SDS011;52402;52.670;6.750;2023-11-22T02:28:33;93.18;;;87.47;;
60292;SDS011;52402;52.670;6.750;2023-11-22T02:30:58;85.70;;;80.50;;
60292;SDS011;52402;52.670;6.750;2023-11-22T02:33:27;85.82;;;80.68;;
60292;SDS011;52402;52.670;6.750;2023-11-22T02:35:52;88.22;;;82.93;;
60292;SDS011;52402;52.670;6.750;2023-11-22T02:38:20;77.78;;;73.10;;
60292;SDS011;52402;52.670;6.750;2023-11-22T02:40:46;95.20;;;89.50;;
60292;SDS011;52402;52.670;6.750;2023-11-22T02:43:11;97.75;;;92.13;;
60292;SDS011;52402;52.670;6.750;2023-11-22T02:45:37;97.22;;;91.70;;
60292;SDS011;52402;52.670;6.750;2023-11-22T02:48:03;89.30;;;84.00;;
60292;SDS011;52402;52.670;6.750;2023-11-22T02:50:34;89.53;;;84.22;;
60292;SDS011;52402;52.670;6.750;2023-11-22T02:53:03;89.68;;;84.38;;
60292;SDS011;52402;52.670;6.750;2023-11-22T02:55:29;92.72;;;87.25;;
60292;SDS011;52402;52.670;6.750;2023-11-22T02:57:59;85.60;;;80.43;;
60292;SDS011;52402;52.670;6.750;2023-11-22T03:00:28;87.53;;;82.32;;
60292;SDS011;52402;52.670;6.750;2023-11-22T03:02:56;86.50;;;81.38;;
60292;SDS011;52402;52.670;6.750;2023-11-22T03:05:24;87.28;;;82.13;;
60292;SDS011;52402;52.670;6.750;2023-11-22T03:07:50;87.85;;;82.60;;
60292;SDS011;52402;52.670;6.750;2023-11-22T03:10:23;85.63;;;80.53;;
60292;SDS011;52402;52.670;6.750;2023-11-22T03:12:51;88.72;;;83.53;;
60292;SDS011;52402;52.670;6.750;2023-11-22T03:15:17;92.82;;;87.40;;
60292;SDS011;52402;52.670;6.750;2023-11-22T03:17:42;92.57;;;87.10;;
60292;SDS011;52402;52.670;6.750;2023-11-22T03:20:09;92.53;;;87.03;;
60292;SDS011;52402;52.670;6.750;2023-11-22T03:22:39;83.82;;;78.82;;
60292;SDS011;52402;52.670;6.750;2023-11-22T03:25:04;85.63;;;80.53;;
60292;SDS011;52402;52.670;6.750;2023-11-22T03:27:33;78.60;;;73.93;;
60292;SDS011;52402;52.670;6.750;2023-11-22T03:29:59;85.18;;;80.07;;
60292;SDS011;52402;52.670;6.750;2023-11-22T03:32:25;83.28;;;78.15;;
60292;SDS011;52402;52.670;6.750;2023-11-22T03:34:50;83.03;;;77.93;;
60292;SDS011;52402;52.670;6.750;2023-11-22T03:37:17;82.15;;;77.07;;
60292;SDS011;52402;52.670;6.750;2023-11-22T03:39:46;82.80;;;77.70;;
60292;SDS011;52402;52.670;6.750;2023-11-22T03:42:14;85.22;;;80.03;;
60292;SDS011;52402;52.670;6.750;2023-11-22T03:44:43;85.95;;;80.63;;
60292;SDS011;52402;52.670;6.750;2023-11-22T03:47:13;88.25;;;82.85;;
60292;SDS011;52402;52.670;6.750;2023-11-22T03:49:40;81.65;;;76.55;;
60292;SDS011;52402;52.670;6.750;2023-11-22T03:52:11;80.15;;;75.15;;
60292;SDS011;52402;52.670;6.750;2023-11-22T03:54:37;84.80;;;79.60;;
60292;SDS011;52402;52.670;6.750;2023-11-22T03:57:03;88.38;;;83.03;;
60292;SDS011;52402;52.670;6.750;2023-11-22T03:59:29;86.55;;;81.25;;
60292;SDS011;52402;52.670;6.750;2023-11-22T04:01:55;86.07;;;80.78;;
60292;SDS011;52402;52.670;6.750;2023-11-22T04:04:23;85.63;;;80.32;;
60292;SDS011;52402;52.670;6.750;2023-11-22T04:06:48;91.85;;;86.35;;
60292;SDS011;52402;52.670;6.750;2023-11-22T04:09:15;87.65;;;82.25;;
60292;SDS011;52402;52.670;6.750;2023-11-22T04:11:45;82.90;;;77.78;;
60292;SDS011;52402;52.670;6.750;2023-11-22T04:14:11;84.60;;;79.30;;
60292;SDS011;52402;52.670;6.750;2023-11-22T04:16:39;89.43;;;83.93;;
60292;SDS011;52402;52.670;6.750;2023-11-22T04:19:05;91.00;;;85.35;;
60292;SDS011;52402;52.670;6.750;2023-11-22T04:21:31;90.63;;;85.07;;
60292;SDS011;52402;52.670;6.750;2023-11-22T04:23:56;79.57;;;74.63;;
60292;SDS011;52402;52.670;6.750;2023-11-22T04:26:23;84.47;;;79.20;;
60292;SDS011;52402;52.670;6.750;2023-11-22T04:28:52;86.53;;;81.13;;
60292;SDS011;52402;52.670;6.750;2023-11-22T04:31:18;88.10;;;82.63;;
60292;SDS011;52402;52.670;6.750;2023-11-22T04:33:43;87.50;;;82.10;;
60292;SDS011;52402;52.670;6.750;2023-11-22T04:36:09;92.72;;;87.22;;
60292;SDS011;52402;52.670;6.750;2023-11-22T04:38:35;91.72;;;86.20;;
60292;SDS011;52402;52.670;6.750;2023-11-22T04:41:00;91.65;;;86.15;;
60292;SDS011;52402;52.670;6.750;2023-11-22T04:43:26;90.57;;;85.18;;
60292;SDS011;52402;52.670;6.750;2023-11-22T04:45:54;90.47;;;84.97;;
60292;SDS011;52402;52.670;6.750;2023-11-22T04:48:22;89.82;;;84.32;;
60292;SDS011;52402;52.670;6.750;2023-11-22T04:50:49;98.00;;;92.10;;
60292;SDS011;52402;52.670;6.750;2023-11-22T04:53:18;92.35;;;86.65;;
60292;SDS011;52402;52.670;6.750;2023-11-22T04:55:44;95.05;;;89.25;;
60292;SDS011;52402;52.670;6.750;2023-11-22T04:58:12;99.43;;;93.43;;
60292;SDS011;52402;52.670;6.750;2023-11-22T05:00:37;95.00;;;89.20;;
60292;SDS011;52402;52.670;6.750;2023-11-22T05:03:05;92.25;;;86.65;;
60292;SDS011;52402;52.670;6.750;2023-11-22T05:05:33;95.60;;;89.70;;
60292;SDS011;52402;52.670;6.750;2023-11-22T05:07:59;91.22;;;85.53;;
60292;SDS011;52402;52.670;6.750;2023-11-22T05:10:25;91.80;;;86.10;;
60292;SDS011;52402;52.670;6.750;2023-11-22T05:12:50;91.30;;;85.70;;
60292;SDS011;52402;52.670;6.750;2023-11-22T05:15:16;90.72;;;85.18;;
60292;SDS011;52402;52.670;6.750;2023-11-22T05:17:44;84.95;;;79.65;;
60292;SDS011;52402;52.670;6.750;2023-11-22T05:20:09;88.60;;;83.15;;
60292;SDS011;52402;52.670;6.750;2023-11-22T05:22:37;87.10;;;81.70;;
60292;SDS011;52402;52.670;6.750;2023-11-22T05:25:02;83.75;;;78.55;;
60292;SDS011;52402;52.670;6.750;2023-11-22T05:27:28;85.32;;;79.93;;
60292;SDS011;52402;52.670;6.750;2023-11-22T05:29:55;84.45;;;79.20;;
60292;SDS011;52402;52.670;6.750;2023-11-22T05:32:20;82.15;;;77.05;;
60292;SDS011;52402;52.670;6.750;2023-11-22T05:34:48;86.28;;;81.05;;
60292;SDS011;52402;52.670;6.750;2023-11-22T05:37:13;82.07;;;77.07;;
60292;SDS011;52402;52.670;6.750;2023-11-22T05:39:39;79.40;;;74.50;;
60292;SDS011;52402;52.670;6.750;2023-11-22T05:42:04;86.03;;;80.82;;
60292;SDS011;52402;52.670;6.750;2023-11-22T05:44:31;90.28;;;84.88;;
60292;SDS011;52402;52.670;6.750;2023-11-22T05:46:57;87.80;;;82.55;;
60292;SDS011;52402;52.670;6.750;2023-11-22T05:49:23;85.35;;;80.30;;
60292;SDS011;52402;52.670;6.750;2023-11-22T05:51:49;87.78;;;82.47;;
60292;SDS011;52402;52.670;6.750;2023-11-22T05:54:14;84.70;;;79.65;;
60292;SDS011;52402;52.670;6.750;2023-11-22T05:56:41;86.10;;;81.00;;
60292;SDS011;52402;52.670;6.750;2023-11-22T05:59:07;91.90;;;86.40;;
60292;SDS011;52402;52.670;6.750;2023-11-22T06:01:33;94.75;;;89.15;;
60292;SDS011;52402;52.670;6.750;2023-11-22T06:03:59;93.63;;;87.97;;
60292;SDS011;52402;52.670;6.750;2023-11-22T06:06:24;89.15;;;83.55;;
60292;SDS011;52402;52.670;6.750;2023-11-22T06:08:50;96.50;;;90.50;;
60292;SDS011;52402;52.670;6.750;2023-11-22T06:11:21;94.28;;;88.47;;
60292;SDS011;52402;52.670;6.750;2023-11-22T06:13:46;86.43;;;80.95;;
60292;SDS011;52402;52.670;6.750;2023-11-22T06:16:12;85.70;;;80.32;;
60292;SDS011;52402;52.670;6.750;2023-11-22T06:18:38;82.25;;;77.05;;
60292;SDS011;52402;52.670;6.750;2023-11-22T06:21:08;76.53;;;71.63;;
60292;SDS011;52402;52.670;6.750;2023-11-22T06:23:34;79.22;;;74.28;;
60292;SDS011;52402;52.670;6.750;2023-11-22T06:26:00;75.10;;;70.40;;
60292;SDS011;52402;52.670;6.750;2023-11-22T06:28:25;71.32;;;66.75;;
60292;SDS011;52402;52.670;6.750;2023-11-22T06:30:51;70.93;;;66.32;;
60292;SDS011;52402;52.670;6.750;2023-11-22T06:33:17;77.75;;;72.75;;
60292;SDS011;52402;52.670;6.750;2023-11-22T06:35:43;86.13;;;80.82;;
60292;SDS011;52402;52.670;6.750;2023-11-22T06:38:09;88.45;;;83.03;;
60292;SDS011;52402;52.670;6.750;2023-11-22T06:40:35;84.88;;;79.78;;
60292;SDS011;52402;52.670;6.750;2023-11-22T06:43:00;82.90;;;77.88;;
60292;SDS011;52402;52.670;6.750;2023-11-22T06:45:26;87.57;;;82.18;;
60292;SDS011;52402;52.670;6.750;2023-11-22T06:47:52;91.80;;;86.20;;
60292;SDS011;52402;52.670;6.750;2023-11-22T06:50:17;85.25;;;79.95;;
60292;SDS011;52402;52.670;6.750;2023-11-22T06:52:43;83.57;;;78.38;;
60292;SDS011;52402;52.670;6.750;2023-11-22T06:57:39;86.22;;;81.03;;
60292;SDS011;52402;52.670;6.750;2023-11-22T07:00:06;83.97;;;78.88;;
60292;SDS011;52402;52.670;6.750;2023-11-22T07:02:36;75.35;;;70.85;;
60292;SDS011;52402;52.670;6.750;2023-11-22T07:05:02;77.93;;;73.28;;
60292;SDS011;52402;52.670;6.750;2023-11-22T07:07:28;73.85;;;69.15;;
60292;SDS011;52402;52.670;6.750;2023-11-22T07:09:54;72.68;;;68.07;;
60292;SDS011;52402;52.670;6.750;2023-11-22T07:12:23;70.45;;;65.85;;
60292;SDS011;52402;52.670;6.750;2023-11-22T07:14:52;68.15;;;63.70;;
60292;SDS011;52402;52.670;6.750;2023-11-22T07:17:20;69.57;;;65.07;;
60292;SDS011;52402;52.670;6.750;2023-11-22T07:19:47;74.28;;;69.57;;
60292;SDS011;52402;52.670;6.750;2023-11-22T07:22:13;69.47;;;64.88;;
60292;SDS011;52402;52.670;6.750;2023-11-22T07:24:44;70.82;;;66.30;;
60292;SDS011;52402;52.670;6.750;2023-11-22T07:27:14;66.43;;;62.13;;
60292;SDS011;52402;52.670;6.750;2023-11-22T07:29:40;65.43;;;61.22;;
60292;SDS011;52402;52.670;6.750;2023-11-22T07:32:06;66.07;;;61.85;;
60292;SDS011;52402;52.670;6.750;2023-11-22T07:34:33;66.68;;;62.33;;
60292;SDS011;52402;52.670;6.750;2023-11-22T07:37:01;63.50;;;59.30;;
60292;SDS011;52402;52.670;6.750;2023-11-22T07:39:28;60.92;;;56.92;;
60292;SDS011;52402;52.670;6.750;2023-11-22T07:41:54;68.63;;;64.13;;
60292;SDS011;52402;52.670;6.750;2023-11-22T07:44:20;70.80;;;66.28;;
60292;SDS011;52402;52.670;6.750;2023-11-22T07:46:46;65.05;;;60.85;;
60292;SDS011;52402;52.670;6.750;2023-11-22T07:49:12;72.45;;;67.88;;
60292;SDS011;52402;52.670;6.750;2023-11-22T07:51:46;68.57;;;64.18;;
60292;SDS011;52402;52.670;6.750;2023-11-22T07:54:12;67.13;;;62.83;;
60292;SDS011;52402;52.670;6.750;2023-11-22T07:56:40;60.03;;;56.03;;
60292;SDS011;52402;52.670;6.750;2023-11-22T07:59:08;68.38;;;63.97;;
60292;SDS011;52402;52.670;6.750;2023-11-22T08:01:35;60.35;;;56.35;;
60292;SDS011;52402;52.670;6.750;2023-11-22T08:04:01;63.17;;;58.97;;
60292;SDS011;52402;52.670;6.750;2023-11-22T08:06:27;60.97;;;56.85;;
60292;SDS011;52402;52.670;6.750;2023-11-22T08:08:53;63.92;;;59.72;;
60292;SDS011;52402;52.670;6.750;2023-11-22T08:11:19;64.28;;;60.08;;
60292;SDS011;52402;52.670;6.750;2023-11-22T08:13:45;70.38;;;65.68;;
60292;SDS011;52402;52.670;6.750;2023-11-22T08:16:12;71.28;;;66.53;;
60292;SDS011;52402;52.670;6.750;2023-11-22T08:18:38;72.95;;;68.10;;
60292;SDS011;52402;52.670;6.750;2023-11-22T08:21:05;73.18;;;68.30;;
60292;SDS011;52402;52.670;6.750;2023-11-22T08:23:31;69.00;;;64.40;;
60292;SDS011;52402;52.670;6.750;2023-11-22T08:26:00;67.93;;;63.33;;
60292;SDS011;52402;52.670;6.750;2023-11-22T08:28:26;67.15;;;62.65;;
60292;SDS011;52402;52.670;6.750;2023-11-22T08:30:52;66.93;;;62.53;;
60292;SDS011;52402;52.670;6.750;2023-11-22T08:33:18;66.43;;;61.92;;
60292;SDS011;52402;52.670;6.750;2023-11-22T08:35:44;68.18;;;63.58;;
60292;SDS011;52402;52.670;6.750;2023-11-22T08:38:15;78.10;;;73.00;;
60292;SDS011;52402;52.670;6.750;2023-11-22T08:40:41;69.45;;;64.70;;
60292;SDS011;52402;52.670;6.750;2023-11-22T08:43:07;74.97;;;69.88;;
60292;SDS011;52402;52.670;6.750;2023-11-22T08:45:32;77.15;;;71.90;;
60292;SDS011;52402;52.670;6.750;2023-11-22T08:48:00;77.57;;;72.28;;
60292;SDS011;52402;52.670;6.750;2023-11-22T08:50:25;70.75;;;65.75;;
60292;SDS011;52402;52.670;6.750;2023-11-22T08:52:59;76.47;;;71.18;;
60292;SDS011;52402;52.670;6.750;2023-11-22T08:55:28;80.47;;;75.00;;
60292;SDS011;52402;52.670;6.750;2023-11-22T08:57:54;78.38;;;73.07;;
60292;SDS011;52402;52.670;6.750;2023-11-22T09:00:20;77.72;;;72.43;;
60292;SDS011;52402;52.670;6.750;2023-11-22T09:02:49;80.47;;;75.07;;
60292;SDS011;52402;52.670;6.750;2023-11-22T09:05:15;79.53;;;74.13;;
60292;SDS011;52402;52.670;6.750;2023-11-22T09:07:42;76.20;;;70.90;;
60292;SDS011;52402;52.670;6.750;2023-11-22T09:10:09;76.45;;;71.15;;
60292;SDS011;52402;52.670;6.750;2023-11-22T09:12:38;75.93;;;70.60;;
60292;SDS011;52402;52.670;6.750;2023-11-22T09:15:08;80.55;;;75.05;;
60292;SDS011;52402;52.670;6.750;2023-11-22T09:17:38;76.75;;;71.43;;
60292;SDS011;52402;52.670;6.750;2023-11-22T09:20:11;74.55;;;69.25;;
60292;SDS011;52402;52.670;6.750;2023-11-22T09:22:43;75.78;;;70.47;;
60292;SDS011;52402;52.670;6.750;2023-11-22T09:25:11;71.32;;;66.22;;
60292;SDS011;52402;52.670;6.750;2023-11-22T09:27:39;71.47;;;66.43;;
60292;SDS011;52402;52.670;6.750;2023-11-22T09:30:07;68.68;;;63.67;;
60292;SDS011;52402;52.670;6.750;2023-11-22T09:32:42;75.30;;;70.00;;
60292;SDS011;52402;52.670;6.750;2023-11-22T09:35:12;76.93;;;71.57;;
60292;SDS011;52402;52.670;6.750;2023-11-22T09:37:39;71.03;;;65.93;;
60292;SDS011;52402;52.670;6.750;2023-11-22T09:40:07;79.63;;;74.28;;
60292;SDS011;52402;52.670;6.750;2023-11-22T09:42:34;76.07;;;70.78;;
60292;SDS011;52402;52.670;6.750;2023-11-22T09:45:00;75.82;;;70.53;;
60292;SDS011;52402;52.670;6.750;2023-11-22T09:47:26;75.18;;;69.97;;
60292;SDS011;52402;52.670;6.750;2023-11-22T09:50:04;76.97;;;71.68;;
60292;SDS011;52402;52.670;6.750;2023-11-22T09:52:33;72.25;;;67.15;;
60292;SDS011;52402;52.670;6.750;2023-11-22T09:55:02;73.55;;;68.35;;
60292;SDS011;52402;52.670;6.750;2023-11-22T09:57:28;69.53;;;64.60;;
60292;SDS011;52402;52.670;6.750;2023-11-22T09:59:55;70.75;;;65.75;;
60292;SDS011;52402;52.670;6.750;2023-11-22T10:02:26;66.90;;;62.10;;
60292;SDS011;52402;52.670;6.750;2023-11-22T10:04:53;65.43;;;60.72;;
60292;SDS011;52402;52.670;6.750;2023-11-22T10:07:22;64.93;;;60.33;;
60292;SDS011;52402;52.670;6.750;2023-11-22T10:09:49;64.30;;;59.80;;
60292;SDS011;52402;52.670;6.750;2023-11-22T10:12:20;62.35;;;57.95;;
60292;SDS011;52402;52.670;6.750;2023-11-22T10:14:47;62.50;;;58.10;;
60292;SDS011;52402;52.670;6.750;2023-11-22T10:17:21;59.42;;;55.25;;
60292;SDS011;52402;52.670;6.750;2023-11-22T10:19:51;61.70;;;57.35;;
60292;SDS011;52402;52.670;6.750;2023-11-22T10:22:17;56.58;;;52.67;;
60292;SDS011;52402;52.670;6.750;2023-11-22T10:24:43;55.88;;;51.97;;
60292;SDS011;52402;52.670;6.750;2023-11-22T10:27:09;57.00;;;53.00;;
60292;SDS011;52402;52.670;6.750;2023-11-22T10:29:36;51.95;;;48.25;;
60292;SDS011;52402;52.670;6.750;2023-11-22T10:32:04;53.65;;;49.85;;
60292;SDS011;52402;52.670;6.750;2023-11-22T10:34:32;53.78;;;49.97;;
60292;SDS011;52402;52.670;6.750;2023-11-22T10:36:59;52.33;;;48.63;;
60292;SDS011;52402;52.670;6.750;2023-11-22T10:39:32;50.00;;;46.40;;
60292;SDS011;52402;52.670;6.750;2023-11-22T10:42:01;51.13;;;47.53;;
60292;SDS011;52402;52.670;6.750;2023-11-22T10:44:34;50.67;;;47.08;;
60292;SDS011;52402;52.670;6.750;2023-11-22T10:47:06;46.72;;;43.22;;
60292;SDS011;52402;52.670;6.750;2023-11-22T10:49:35;44.97;;;41.58;;
60292;SDS011;52402;52.670;6.750;2023-11-22T10:52:03;46.00;;;42.50;;
60292;SDS011;52402;52.670;6.750;2023-11-22T10:54:33;43.20;;;39.88;;
60292;SDS011;52402;52.670;6.750;2023-11-22T10:57:03;50.83;;;47.13;;
60292;SDS011;52402;52.670;6.750;2023-11-22T10:59:29;50.65;;;46.88;;
60292;SDS011;52402;52.670;6.750;2023-11-22T11:01:57;54.35;;;50.42;;
60292;SDS011;52402;52.670;6.750;2023-11-22T11:04:29;52.72;;;48.92;;
60292;SDS011;52402;52.670;6.750;2023-11-22T11:07:24;52.88;;;49.03;;
60292;SDS011;52402;52.670;6.750;2023-11-22T11:09:55;46.22;;;42.80;;
60292;SDS011;52402;52.670;6.750;2023-11-22T11:12:22;50.13;;;46.53;;
60292;SDS011;52402;52.670;6.750;2023-11-22T11:14:53;45.95;;;42.55;;
60292;SDS011;52402;52.670;6.750;2023-11-22T11:17:19;42.63;;;39.50;;
60292;SDS011;52402;52.670;6.750;2023-11-22T11:19:45;37.60;;;34.80;;
60292;SDS011;52402;52.670;6.750;2023-11-22T11:22:13;41.78;;;38.72;;
60292;SDS011;52402;52.670;6.750;2023-11-22T11:24:39;41.15;;;38.05;;
60292;SDS011;52402;52.670;6.750;2023-11-22T11:27:09;39.10;;;36.10;;
60292;SDS011;52402;52.670;6.750;2023-11-22T11:29:40;40.10;;;37.10;;
60292;SDS011;52402;52.670;6.750;2023-11-22T11:32:50;36.92;;;34.03;;
60292;SDS011;52402;52.670;6.750;2023-11-22T11:35:00;37.78;;;34.88;;
60292;SDS011;52402;52.670;6.750;2023-11-22T11:37:29;37.85;;;34.95;;
60292;SDS011;52402;52.670;6.750;2023-11-22T11:39:54;37.60;;;34.70;;
60292;SDS011;52402;52.670;6.750;2023-11-22T11:42:20;39.08;;;36.08;;
60292;SDS011;52402;52.670;6.750;2023-11-22T11:47:26;41.97;;;38.78;;
60292;SDS011;52402;52.670;6.750;2023-11-22T11:49:52;38.38;;;35.38;;
60292;SDS011;52402;52.670;6.750;2023-11-22T11:52:17;37.20;;;34.20;;
60292;SDS011;52402;52.670;6.750;2023-11-22T11:54:44;40.45;;;37.35;;
60292;SDS011;52402;52.670;6.750;2023-11-22T11:57:12;36.38;;;33.47;;
60292;SDS011;52402;52.670;6.750;2023-11-22T11:59:38;40.65;;;37.55;;
60292;SDS011;52402;52.670;6.750;2023-11-22T12:02:04;43.92;;;40.63;;
60292;SDS011;52402;52.670;6.750;2023-11-22T12:04:31;52.17;;;48.38;;
60292;SDS011;52402;52.670;6.750;2023-11-22T12:06:58;48.22;;;44.72;;
60292;SDS011;52402;52.670;6.750;2023-11-22T12:09:26;44.45;;;41.05;;
60292;SDS011;52402;52.670;6.750;2023-11-22T12:11:54;45.58;;;42.17;;
60292;SDS011;52402;52.670;6.750;2023-11-22T12:14:20;43.38;;;40.08;;
60292;SDS011;52402;52.670;6.750;2023-11-22T12:16:46;46.38;;;42.88;;
60292;SDS011;52402;52.670;6.750;2023-11-22T12:19:21;44.47;;;41.17;;
60292;SDS011;52402;52.670;6.750;2023-11-22T12:21:48;48.78;;;45.17;;
60292;SDS011;52402;52.670;6.750;2023-11-22T12:24:14;43.17;;;39.95;;
60292;SDS011;52402;52.670;6.750;2023-11-22T12:26:44;44.38;;;41.08;;
60292;SDS011;52402;52.670;6.750;2023-11-22T12:29:16;43.08;;;39.78;;
60292;SDS011;52402;52.670;6.750;2023-11-22T12:31:48;42.50;;;39.30;;
60292;SDS011;52402;52.670;6.750;2023-11-22T12:34:22;42.55;;;39.35;;
60292;SDS011;52402;52.670;6.750;2023-11-22T12:36:50;42.47;;;39.28;;
60292;SDS011;52402;52.670;6.750;2023-11-22T12:39:16;42.70;;;39.50;;
60292;SDS011;52402;52.670;6.750;2023-11-22T12:41:48;42.83;;;39.63;;
60292;SDS011;52402;52.670;6.750;2023-11-22T12:44:16;46.90;;;43.40;;
60292;SDS011;52402;52.670;6.750;2023-11-22T12:49:21;38.70;;;35.70;;
60292;SDS011;52402;52.670;6.750;2023-11-22T12:51:50;41.58;;;38.47;;
60292;SDS011;52402;52.670;6.750;2023-11-22T12:54:17;41.58;;;38.42;;
60292;SDS011;52402;52.670;6.750;2023-11-22T12:56:46;43.90;;;40.67;;
60292;SDS011;52402;52.670;6.750;2023-11-22T12:59:14;44.70;;;41.40;;
60292;SDS011;52402;52.670;6.750;2023-11-22T13:01:40;47.15;;;43.75;;
60292;SDS011;52402;52.670;6.750;2023-11-22T13:04:06;45.22;;;41.92;;
60292;SDS011;52402;52.670;6.750;2023-11-22T13:06:32;42.60;;;39.40;;
60292;SDS011;52402;52.670;6.750;2023-11-22T13:08:58;39.25;;;36.22;;
60292;SDS011;52402;52.670;6.750;2023-11-22T13:11:23;40.03;;;36.95;;
60292;SDS011;52402;52.670;6.750;2023-11-22T13:13:49;45.17;;;41.88;;
60292;SDS011;52402;52.670;6.750;2023-11-22T13:16:15;44.00;;;40.80;;
60292;SDS011;52402;52.670;6.750;2023-11-22T13:18:44;42.92;;;39.72;;
60292;SDS011;52402;52.670;6.750;2023-11-22T13:21:09;42.85;;;39.65;;
60292;SDS011;52402;52.670;6.750;2023-11-22T13:23:35;42.90;;;39.70;;
60292;SDS011;52402;52.670;6.750;2023-11-22T13:26:01;42.70;;;39.50;;
60292;SDS011;52402;52.670;6.750;2023-11-22T13:28:28;40.08;;;37.08;;
60292;SDS011;52402;52.670;6.750;2023-11-22T13:30:56;39.88;;;36.88;;
60292;SDS011;52402;52.670;6.750;2023-11-22T13:33:29;46.08;;;42.67;;
60292;SDS011;52402;52.670;6.750;2023-11-22T13:35:55;42.88;;;39.67;;
60292;SDS011;52402;52.670;6.750;2023-11-22T13:38:28;43.15;;;40.00;;
60292;SDS011;52402;52.670;6.750;2023-11-22T13:40:53;42.75;;;39.63;;
60292;SDS011;52402;52.670;6.750;2023-11-22T13:43:19;44.00;;;40.80;;
60292;SDS011;52402;52.670;6.750;2023-11-22T13:45:45;39.30;;;36.30;;
60292;SDS011;52402;52.670;6.750;2023-11-22T13:48:15;37.20;;;34.30;;
60292;SDS011;52402;52.670;6.750;2023-11-22T13:50:41;41.83;;;38.67;;
60292;SDS011;52402;52.670;6.750;2023-11-22T13:53:08;45.17;;;41.88;;
60292;SDS011;52402;52.670;6.750;2023-11-22T13:55:36;44.33;;;41.08;;
60292;SDS011;52402;52.670;6.750;2023-11-22T13:58:02;46.08;;;42.78;;
60292;SDS011;52402;52.670;6.750;2023-11-22T14:00:29;44.70;;;41.42;;
60292;SDS011;52402;52.670;6.750;2023-11-22T14:02:59;40.90;;;37.83;;
60292;SDS011;52402;52.670;6.750;2023-11-22T14:05:31;42.83;;;39.67;;
60292;SDS011;52402;52.670;6.750;2023-11-22T14:08:01;43.00;;;39.88;;
60292;SDS011;52402;52.670;6.750;2023-11-22T14:10:27;42.17;;;39.05;;
60292;SDS011;52402;52.670;6.750;2023-11-22T14:12:53;44.25;;;41.05;;
60292;SDS011;52402;52.670;6.750;2023-11-22T14:15:25;44.92;;;41.63;;
60292;SDS011;52402;52.670;6.750;2023-11-22T14:17:51;43.20;;;40.00;;
60292;SDS011;52402;52.670;6.750;2023-11-22T14:20:17;44.67;;;41.38;;
60292;SDS011;52402;52.670;6.750;2023-11-22T14:22:46;46.53;;;43.22;;
60292;SDS011;52402;52.670;6.750;2023-11-22T14:25:11;44.85;;;41.60;;
60292;SDS011;52402;52.670;6.750;2023-11-22T14:27:38;42.90;;;39.80;;
60292;SDS011;52402;52.670;6.750;2023-11-22T14:30:08;43.40;;;40.20;;